sensor_id;sensor_type;location;lat;lon;timestamp;temperature;humidity
32522;DHT22;18963;51.504;5.316;2022-07-17T00:02:12;12.50;99.90
32522;DHT22;18963;51.504;5.316;2022-07-17T00:04:38;12.40;99.90
32522;DHT22;18963;51.504;5.316;2022-07-17T00:07:04;12.40;99.90
32522;DHT22;18963;51.504;5.316;2022-07-17T00:09:29;12.40;99.90
32522;DHT22;18963;51.504;5.316;2022-07-17T00:11:55;12.40;99.90
32522;DHT22;18963;51.504;5.316;2022-07-17T00:14:20;12.30;99.90
32522;DHT22;18963;51.504;5.316;2022-07-17T00:16:46;12.20;99.90
32522;DHT22;18963;51.504;5.316;2022-07-17T00:19:11;12.20;99.90
32522;DHT22;18963;51.504;5.316;2022-07-17T00:21:37;12.20;99.90
32522;DHT22;18963;51.504;5.316;2022-07-17T00:24:02;12.10;99.90
32522;DHT22;18963;51.504;5.316;2022-07-17T00:26:28;12.10;99.90
32522;DHT22;18963;51.504;5.316;2022-07-17T00:28:53;12.10;99.90
32522;DHT22;18963;51.504;5.316;2022-07-17T00:31:19;12.00;99.90
32522;DHT22;18963;51.504;5.316;2022-07-17T00:33:45;12.00;99.90
32522;DHT22;18963;51.504;5.316;2022-07-17T00:36:10;11.90;99.90
32522;DHT22;18963;51.504;5.316;2022-07-17T00:38:36;11.90;99.90
32522;DHT22;18963;51.504;5.316;2022-07-17T00:41:01;11.80;99.90
32522;DHT22;18963;51.504;5.316;2022-07-17T00:43:27;11.70;99.90
32522;DHT22;18963;51.504;5.316;2022-07-17T00:45:57;11.60;99.90
32522;DHT22;18963;51.504;5.316;2022-07-17T00:48:23;11.50;99.90
32522;DHT22;18963;51.504;5.316;2022-07-17T00:50:49;11.40;99.90
32522;DHT22;18963;51.504;5.316;2022-07-17T00:53:15;11.40;99.90
32522;DHT22;18963;51.504;5.316;2022-07-17T00:55:40;11.30;99.90
32522;DHT22;18963;51.504;5.316;2022-07-17T00:58:07;11.20;99.90
32522;DHT22;18963;51.504;5.316;2022-07-17T01:00:34;11.10;99.90
32522;DHT22;18963;51.504;5.316;2022-07-17T01:03:00;11.00;99.90
32522;DHT22;18963;51.504;5.316;2022-07-17T01:05:26;10.90;99.90
32522;DHT22;18963;51.504;5.316;2022-07-17T01:07:52;10.90;99.90
32522;DHT22;18963;51.504;5.316;2022-07-17T01:10:18;10.80;99.90
32522;DHT22;18963;51.504;5.316;2022-07-17T01:12:46;10.80;99.90
32522;DHT22;18963;51.504;5.316;2022-07-17T01:15:12;10.70;99.90
32522;DHT22;18963;51.504;5.316;2022-07-17T01:17:40;10.70;99.90
32522;DHT22;18963;51.504;5.316;2022-07-17T01:20:07;10.60;99.90
32522;DHT22;18963;51.504;5.316;2022-07-17T01:22:44;10.60;99.90
32522;DHT22;18963;51.504;5.316;2022-07-17T01:25:10;10.50;99.90
32522;DHT22;18963;51.504;5.316;2022-07-17T01:27:35;10.50;99.90
32522;DHT22;18963;51.504;5.316;2022-07-17T01:30:01;10.40;99.90
32522;DHT22;18963;51.504;5.316;2022-07-17T01:32:30;10.40;99.90
32522;DHT22;18963;51.504;5.316;2022-07-17T01:34:56;10.40;99.90
32522;DHT22;18963;51.504;5.316;2022-07-17T01:37:21;10.40;99.90
32522;DHT22;18963;51.504;5.316;2022-07-17T01:39:48;10.40;99.90
32522;DHT22;18963;51.504;5.316;2022-07-17T01:42:24;10.30;99.90
32522;DHT22;18963;51.504;5.316;2022-07-17T01:44:50;10.30;99.90
32522;DHT22;18963;51.504;5.316;2022-07-17T01:47:17;10.30;99.90
32522;DHT22;18963;51.504;5.316;2022-07-17T01:49:54;10.20;99.90
32522;DHT22;18963;51.504;5.316;2022-07-17T01:52:21;10.20;99.90
32522;DHT22;18963;51.504;5.316;2022-07-17T01:54:47;10.20;99.90
32522;DHT22;18963;51.504;5.316;2022-07-17T01:57:13;10.10;99.90
32522;DHT22;18963;51.504;5.316;2022-07-17T01:59:39;10.10;99.90
32522;DHT22;18963;51.504;5.316;2022-07-17T02:02:05;10.10;99.90
32522;DHT22;18963;51.504;5.316;2022-07-17T02:04:35;10.00;99.90
32522;DHT22;18963;51.504;5.316;2022-07-17T02:07:02;10.00;99.90
32522;DHT22;18963;51.504;5.316;2022-07-17T02:09:27;10.10;99.90
32522;DHT22;18963;51.504;5.316;2022-07-17T02:11:53;10.20;99.90
32522;DHT22;18963;51.504;5.316;2022-07-17T02:14:19;10.30;99.90
32522;DHT22;18963;51.504;5.316;2022-07-17T02:16:45;10.30;99.90
32522;DHT22;18963;51.504;5.316;2022-07-17T02:19:11;10.30;99.90
32522;DHT22;18963;51.504;5.316;2022-07-17T02:21:37;10.30;99.90
32522;DHT22;18963;51.504;5.316;2022-07-17T02:24:02;10.30;99.90
32522;DHT22;18963;51.504;5.316;2022-07-17T02:26:28;10.20;99.90
32522;DHT22;18963;51.504;5.316;2022-07-17T02:28:53;10.10;99.90
32522;DHT22;18963;51.504;5.316;2022-07-17T02:31:19;10.10;99.90
32522;DHT22;18963;51.504;5.316;2022-07-17T02:33:45;10.10;99.90
32522;DHT22;18963;51.504;5.316;2022-07-17T02:36:10;10.00;99.90
32522;DHT22;18963;51.504;5.316;2022-07-17T02:38:36;10.00;99.90
32522;DHT22;18963;51.504;5.316;2022-07-17T02:41:01;10.00;99.90
32522;DHT22;18963;51.504;5.316;2022-07-17T02:43:27;9.90;99.90
32522;DHT22;18963;51.504;5.316;2022-07-17T02:45:53;9.90;99.90
32522;DHT22;18963;51.504;5.316;2022-07-17T02:48:18;9.90;99.90
32522;DHT22;18963;51.504;5.316;2022-07-17T02:50:44;9.90;99.90
32522;DHT22;18963;51.504;5.316;2022-07-17T02:53:09;9.80;99.90
32522;DHT22;18963;51.504;5.316;2022-07-17T02:55:35;9.80;99.90
32522;DHT22;18963;51.504;5.316;2022-07-17T02:58:02;9.80;99.90
32522;DHT22;18963;51.504;5.316;2022-07-17T03:00:27;9.80;99.90
32522;DHT22;18963;51.504;5.316;2022-07-17T03:02:53;9.80;99.90
32522;DHT22;18963;51.504;5.316;2022-07-17T03:05:19;9.80;99.90
32522;DHT22;18963;51.504;5.316;2022-07-17T03:07:45;9.80;99.90
32522;DHT22;18963;51.504;5.316;2022-07-17T03:10:11;9.80;99.90
32522;DHT22;18963;51.504;5.316;2022-07-17T03:12:37;9.70;99.90
32522;DHT22;18963;51.504;5.316;2022-07-17T03:15:05;9.70;99.90
32522;DHT22;18963;51.504;5.316;2022-07-17T03:17:31;9.60;99.90
32522;DHT22;18963;51.504;5.316;2022-07-17T03:19:57;9.60;99.90
32522;DHT22;18963;51.504;5.316;2022-07-17T03:22:23;9.60;99.90
32522;DHT22;18963;51.504;5.316;2022-07-17T03:24:48;9.50;99.90
32522;DHT22;18963;51.504;5.316;2022-07-17T03:27:14;9.60;99.90
32522;DHT22;18963;51.504;5.316;2022-07-17T03:29:39;9.50;99.90
32522;DHT22;18963;51.504;5.316;2022-07-17T03:32:05;9.60;99.90
32522;DHT22;18963;51.504;5.316;2022-07-17T03:34:31;9.60;99.90
32522;DHT22;18963;51.504;5.316;2022-07-17T03:36:56;9.50;99.90
32522;DHT22;18963;51.504;5.316;2022-07-17T03:39:22;9.50;99.90
32522;DHT22;18963;51.504;5.316;2022-07-17T03:41:47;9.50;99.90
32522;DHT22;18963;51.504;5.316;2022-07-17T03:44:13;9.50;99.90
32522;DHT22;18963;51.504;5.316;2022-07-17T03:46:39;9.50;99.90
32522;DHT22;18963;51.504;5.316;2022-07-17T03:49:05;9.40;99.90
32522;DHT22;18963;51.504;5.316;2022-07-17T03:51:31;9.30;99.90
32522;DHT22;18963;51.504;5.316;2022-07-17T03:53:56;9.30;99.90
32522;DHT22;18963;51.504;5.316;2022-07-17T03:56:22;9.30;99.90
32522;DHT22;18963;51.504;5.316;2022-07-17T03:58:47;9.20;99.90
32522;DHT22;18963;51.504;5.316;2022-07-17T04:01:13;9.20;99.90
32522;DHT22;18963;51.504;5.316;2022-07-17T04:03:39;9.20;99.90
32522;DHT22;18963;51.504;5.316;2022-07-17T04:06:04;9.10;99.90
32522;DHT22;18963;51.504;5.316;2022-07-17T04:08:30;9.10;99.90
32522;DHT22;18963;51.504;5.316;2022-07-17T04:10:56;9.10;99.90
32522;DHT22;18963;51.504;5.316;2022-07-17T04:13:21;9.20;99.90
32522;DHT22;18963;51.504;5.316;2022-07-17T04:15:47;9.20;99.90
32522;DHT22;18963;51.504;5.316;2022-07-17T04:18:24;9.20;99.90
32522;DHT22;18963;51.504;5.316;2022-07-17T04:20:51;9.20;99.90
32522;DHT22;18963;51.504;5.316;2022-07-17T04:23:18;9.30;99.90
32522;DHT22;18963;51.504;5.316;2022-07-17T04:25:44;9.30;99.90
32522;DHT22;18963;51.504;5.316;2022-07-17T04:28:10;9.40;99.90
32522;DHT22;18963;51.504;5.316;2022-07-17T04:30:36;9.50;99.90
32522;DHT22;18963;51.504;5.316;2022-07-17T04:33:02;9.50;99.90
32522;DHT22;18963;51.504;5.316;2022-07-17T04:35:28;9.50;99.90
32522;DHT22;18963;51.504;5.316;2022-07-17T04:37:54;9.70;99.90
32522;DHT22;18963;51.504;5.316;2022-07-17T04:40:20;9.70;99.90
32522;DHT22;18963;51.504;5.316;2022-07-17T04:42:45;9.80;99.90
32522;DHT22;18963;51.504;5.316;2022-07-17T04:45:11;9.80;99.90
32522;DHT22;18963;51.504;5.316;2022-07-17T04:47:38;9.80;99.90
32522;DHT22;18963;51.504;5.316;2022-07-17T04:50:05;9.80;99.90
32522;DHT22;18963;51.504;5.316;2022-07-17T04:52:30;9.90;99.90
32522;DHT22;18963;51.504;5.316;2022-07-17T04:54:56;9.90;99.90
32522;DHT22;18963;51.504;5.316;2022-07-17T04:57:21;9.90;99.90
32522;DHT22;18963;51.504;5.316;2022-07-17T04:59:47;10.00;99.90
32522;DHT22;18963;51.504;5.316;2022-07-17T05:02:13;10.10;99.90
32522;DHT22;18963;51.504;5.316;2022-07-17T05:04:38;10.20;99.90
32522;DHT22;18963;51.504;5.316;2022-07-17T05:07:04;10.40;99.90
32522;DHT22;18963;51.504;5.316;2022-07-17T05:09:29;10.50;99.90
32522;DHT22;18963;51.504;5.316;2022-07-17T05:11:55;10.60;99.90
32522;DHT22;18963;51.504;5.316;2022-07-17T05:14:20;10.80;99.90
32522;DHT22;18963;51.504;5.316;2022-07-17T05:16:46;10.90;99.90
32522;DHT22;18963;51.504;5.316;2022-07-17T05:19:11;11.10;99.90
32522;DHT22;18963;51.504;5.316;2022-07-17T05:21:38;11.30;99.90
32522;DHT22;18963;51.504;5.316;2022-07-17T05:24:04;11.50;99.90
32522;DHT22;18963;51.504;5.316;2022-07-17T05:26:29;11.80;99.90
32522;DHT22;18963;51.504;5.316;2022-07-17T05:28:55;12.00;99.90
32522;DHT22;18963;51.504;5.316;2022-07-17T05:31:21;12.20;99.90
32522;DHT22;18963;51.504;5.316;2022-07-17T05:33:46;12.40;99.90
32522;DHT22;18963;51.504;5.316;2022-07-17T05:36:12;12.70;99.90
32522;DHT22;18963;51.504;5.316;2022-07-17T05:38:37;12.90;99.90
32522;DHT22;18963;51.504;5.316;2022-07-17T05:41:03;13.10;99.90
32522;DHT22;18963;51.504;5.316;2022-07-17T05:43:29;13.30;99.90
32522;DHT22;18963;51.504;5.316;2022-07-17T05:45:58;13.50;99.90
32522;DHT22;18963;51.504;5.316;2022-07-17T05:48:24;13.70;99.90
32522;DHT22;18963;51.504;5.316;2022-07-17T05:50:50;13.90;99.90
32522;DHT22;18963;51.504;5.316;2022-07-17T05:53:16;14.20;99.90
32522;DHT22;18963;51.504;5.316;2022-07-17T05:55:42;14.50;99.90
32522;DHT22;18963;51.504;5.316;2022-07-17T05:58:07;14.70;99.90
32522;DHT22;18963;51.504;5.316;2022-07-17T06:00:33;15.10;99.90
32522;DHT22;18963;51.504;5.316;2022-07-17T06:02:59;15.30;99.90
32522;DHT22;18963;51.504;5.316;2022-07-17T06:05:25;15.50;99.90
32522;DHT22;18963;51.504;5.316;2022-07-17T06:07:52;15.80;99.90
32522;DHT22;18963;51.504;5.316;2022-07-17T06:10:18;16.10;99.90
32522;DHT22;18963;51.504;5.316;2022-07-17T06:12:44;16.30;99.90
32522;DHT22;18963;51.504;5.316;2022-07-17T06:15:10;16.50;99.90
32522;DHT22;18963;51.504;5.316;2022-07-17T06:17:35;16.80;99.90
32522;DHT22;18963;51.504;5.316;2022-07-17T06:20:01;17.10;99.90
32522;DHT22;18963;51.504;5.316;2022-07-17T06:22:27;17.40;99.90
32522;DHT22;18963;51.504;5.316;2022-07-17T06:24:53;17.70;99.90
32522;DHT22;18963;51.504;5.316;2022-07-17T06:27:18;18.10;99.90
32522;DHT22;18963;51.504;5.316;2022-07-17T06:29:44;18.40;99.90
32522;DHT22;18963;51.504;5.316;2022-07-17T06:32:11;18.50;99.90
32522;DHT22;18963;51.504;5.316;2022-07-17T06:34:37;18.80;99.90
32522;DHT22;18963;51.504;5.316;2022-07-17T06:37:03;19.00;99.90
32522;DHT22;18963;51.504;5.316;2022-07-17T06:39:28;19.20;99.90
32522;DHT22;18963;51.504;5.316;2022-07-17T06:41:54;19.50;99.90
32522;DHT22;18963;51.504;5.316;2022-07-17T06:44:19;19.70;99.90
32522;DHT22;18963;51.504;5.316;2022-07-17T06:46:45;20.00;99.60
32522;DHT22;18963;51.504;5.316;2022-07-17T06:49:10;20.20;98.70
32522;DHT22;18963;51.504;5.316;2022-07-17T06:51:36;20.50;97.80
32522;DHT22;18963;51.504;5.316;2022-07-17T06:54:02;20.80;96.90
32522;DHT22;18963;51.504;5.316;2022-07-17T06:56:27;21.00;96.30
32522;DHT22;18963;51.504;5.316;2022-07-17T06:58:53;21.10;95.30
32522;DHT22;18963;51.504;5.316;2022-07-17T07:01:19;21.30;94.40
32522;DHT22;18963;51.504;5.316;2022-07-17T07:03:44;21.50;94.10
32522;DHT22;18963;51.504;5.316;2022-07-17T07:06:10;21.40;92.70
32522;DHT22;18963;51.504;5.316;2022-07-17T07:08:35;21.60;94.20
32522;DHT22;18963;51.504;5.316;2022-07-17T07:11:01;22.10;93.70
32522;DHT22;18963;51.504;5.316;2022-07-17T07:13:28;22.60;92.00
32522;DHT22;18963;51.504;5.316;2022-07-17T07:15:54;22.80;90.00
32522;DHT22;18963;51.504;5.316;2022-07-17T07:18:20;22.70;88.30
32522;DHT22;18963;51.504;5.316;2022-07-17T07:20:46;22.60;87.20
32522;DHT22;18963;51.504;5.316;2022-07-17T07:23:11;22.70;87.60
32522;DHT22;18963;51.504;5.316;2022-07-17T07:25:37;22.70;87.60
32522;DHT22;18963;51.504;5.316;2022-07-17T07:28:03;22.90;87.60
32522;DHT22;18963;51.504;5.316;2022-07-17T07:30:29;22.90;83.50
32522;DHT22;18963;51.504;5.316;2022-07-17T07:32:55;23.00;82.80
32522;DHT22;18963;51.504;5.316;2022-07-17T07:35:20;22.90;82.40
32522;DHT22;18963;51.504;5.316;2022-07-17T07:37:46;23.20;82.10
32522;DHT22;18963;51.504;5.316;2022-07-17T07:40:12;23.30;81.30
32522;DHT22;18963;51.504;5.316;2022-07-17T07:42:37;23.40;81.30
32522;DHT22;18963;51.504;5.316;2022-07-17T07:45:04;23.40;80.70
32522;DHT22;18963;51.504;5.316;2022-07-17T07:47:29;23.70;79.90
32522;DHT22;18963;51.504;5.316;2022-07-17T07:49:55;23.80;79.50
32522;DHT22;18963;51.504;5.316;2022-07-17T07:52:20;24.00;79.30
32522;DHT22;18963;51.504;5.316;2022-07-17T07:54:46;24.20;78.70
32522;DHT22;18963;51.504;5.316;2022-07-17T07:57:12;24.30;78.10
32522;DHT22;18963;51.504;5.316;2022-07-17T07:59:37;24.50;75.00
32522;DHT22;18963;51.504;5.316;2022-07-17T08:02:04;24.70;72.30
32522;DHT22;18963;51.504;5.316;2022-07-17T08:04:29;24.90;70.80
32522;DHT22;18963;51.504;5.316;2022-07-17T08:06:55;25.00;68.90
32522;DHT22;18963;51.504;5.316;2022-07-17T08:09:21;25.10;68.60
32522;DHT22;18963;51.504;5.316;2022-07-17T08:11:47;25.10;68.40
32522;DHT22;18963;51.504;5.316;2022-07-17T08:14:13;25.20;68.70
32522;DHT22;18963;51.504;5.316;2022-07-17T08:16:38;25.10;68.50
32522;DHT22;18963;51.504;5.316;2022-07-17T08:19:04;25.10;69.80
32522;DHT22;18963;51.504;5.316;2022-07-17T08:21:30;25.20;65.90
32522;DHT22;18963;51.504;5.316;2022-07-17T08:23:55;25.40;65.40
32522;DHT22;18963;51.504;5.316;2022-07-17T08:26:21;25.40;63.20
32522;DHT22;18963;51.504;5.316;2022-07-17T08:28:47;25.90;65.80
32522;DHT22;18963;51.504;5.316;2022-07-17T08:31:13;25.90;63.10
32522;DHT22;18963;51.504;5.316;2022-07-17T08:33:38;26.10;62.50
32522;DHT22;18963;51.504;5.316;2022-07-17T08:36:04;26.10;63.60
32522;DHT22;18963;51.504;5.316;2022-07-17T08:38:30;26.50;62.20
32522;DHT22;18963;51.504;5.316;2022-07-17T08:40:55;26.60;61.60
32522;DHT22;18963;51.504;5.316;2022-07-17T08:43:23;26.70;58.10
32522;DHT22;18963;51.504;5.316;2022-07-17T08:45:49;26.90;57.90
32522;DHT22;18963;51.504;5.316;2022-07-17T08:48:17;27.00;55.50
32522;DHT22;18963;51.504;5.316;2022-07-17T08:50:44;26.30;54.70
32522;DHT22;18963;51.504;5.316;2022-07-17T08:53:09;26.10;54.30
32522;DHT22;18963;51.504;5.316;2022-07-17T08:55:36;26.30;55.10
32522;DHT22;18963;51.504;5.316;2022-07-17T08:58:02;26.40;56.40
32522;DHT22;18963;51.504;5.316;2022-07-17T09:00:30;26.80;55.90
32522;DHT22;18963;51.504;5.316;2022-07-17T09:02:57;26.90;56.10
32522;DHT22;18963;51.504;5.316;2022-07-17T09:05:24;27.00;56.00
32522;DHT22;18963;51.504;5.316;2022-07-17T09:07:50;27.10;55.00
32522;DHT22;18963;51.504;5.316;2022-07-17T09:10:15;27.20;55.30
32522;DHT22;18963;51.504;5.316;2022-07-17T09:12:41;27.10;54.90
32522;DHT22;18963;51.504;5.316;2022-07-17T09:15:19;27.40;54.60
32522;DHT22;18963;51.504;5.316;2022-07-17T09:17:53;27.60;54.70
32522;DHT22;18963;51.504;5.316;2022-07-17T09:20:20;28.00;55.30
32522;DHT22;18963;51.504;5.316;2022-07-17T09:22:56;28.00;53.60
32522;DHT22;18963;51.504;5.316;2022-07-17T09:25:43;28.10;53.60
32522;DHT22;18963;51.504;5.316;2022-07-17T09:28:11;28.50;53.80
32522;DHT22;18963;51.504;5.316;2022-07-17T09:30:40;28.20;51.50
32522;DHT22;18963;51.504;5.316;2022-07-17T09:33:17;28.30;49.00
32522;DHT22;18963;51.504;5.316;2022-07-17T09:35:57;28.30;49.20
32522;DHT22;18963;51.504;5.316;2022-07-17T09:38:31;28.30;50.90
32522;DHT22;18963;51.504;5.316;2022-07-17T09:43:44;28.90;50.80
32522;DHT22;18963;51.504;5.316;2022-07-17T09:46:16;29.00;50.40
32522;DHT22;18963;51.504;5.316;2022-07-17T09:48:44;28.90;51.00
32522;DHT22;18963;51.504;5.316;2022-07-17T09:51:27;28.60;50.70
32522;DHT22;18963;51.504;5.316;2022-07-17T09:53:56;28.50;51.30
32522;DHT22;18963;51.504;5.316;2022-07-17T09:56:25;29.00;50.90
32522;DHT22;18963;51.504;5.316;2022-07-17T09:58:56;28.80;49.10
32522;DHT22;18963;51.504;5.316;2022-07-17T10:01:23;28.80;49.00
32522;DHT22;18963;51.504;5.316;2022-07-17T10:03:49;29.10;49.50
32522;DHT22;18963;51.504;5.316;2022-07-17T10:06:17;29.30;47.70
32522;DHT22;18963;51.504;5.316;2022-07-17T10:08:42;29.30;47.60
32522;DHT22;18963;51.504;5.316;2022-07-17T10:11:09;29.90;47.70
32522;DHT22;18963;51.504;5.316;2022-07-17T10:13:36;30.10;45.30
32522;DHT22;18963;51.504;5.316;2022-07-17T10:16:04;29.90;45.40
32522;DHT22;18963;51.504;5.316;2022-07-17T10:18:43;29.80;45.30
32522;DHT22;18963;51.504;5.316;2022-07-17T10:23:35;30.00;47.10
32522;DHT22;18963;51.504;5.316;2022-07-17T10:26:01;30.20;47.70
32522;DHT22;18963;51.504;5.316;2022-07-17T10:28:39;30.60;46.10
32522;DHT22;18963;51.504;5.316;2022-07-17T10:31:05;30.70;46.20
32522;DHT22;18963;51.504;5.316;2022-07-17T10:33:30;30.90;46.00
32522;DHT22;18963;51.504;5.316;2022-07-17T10:35:56;31.20;44.80
32522;DHT22;18963;51.504;5.316;2022-07-17T10:38:26;31.10;44.00
32522;DHT22;18963;51.504;5.316;2022-07-17T10:41:02;30.90;44.60
32522;DHT22;18963;51.504;5.316;2022-07-17T10:43:41;30.70;43.60
32522;DHT22;18963;51.504;5.316;2022-07-17T10:46:07;30.90;43.50
32522;DHT22;18963;51.504;5.316;2022-07-17T10:48:32;30.80;43.60
32522;DHT22;18963;51.504;5.316;2022-07-17T10:50:58;30.70;43.70
32522;DHT22;18963;51.504;5.316;2022-07-17T10:53:31;31.00;43.40
32522;DHT22;18963;51.504;5.316;2022-07-17T10:56:03;31.00;43.80
32522;DHT22;18963;51.504;5.316;2022-07-17T10:58:36;31.60;43.40
32522;DHT22;18963;51.504;5.316;2022-07-17T11:01:18;32.20;42.50
32522;DHT22;18963;51.504;5.316;2022-07-17T11:03:59;32.80;42.30
32522;DHT22;18963;51.504;5.316;2022-07-17T11:06:29;33.30;41.60
32522;DHT22;18963;51.504;5.316;2022-07-17T11:09:08;33.50;41.60
32522;DHT22;18963;51.504;5.316;2022-07-17T11:11:48;33.00;40.80
32522;DHT22;18963;51.504;5.316;2022-07-17T11:14:15;33.20;40.20
32522;DHT22;18963;51.504;5.316;2022-07-17T11:17:02;32.90;41.40
32522;DHT22;18963;51.504;5.316;2022-07-17T11:19:30;33.00;41.00
32522;DHT22;18963;51.504;5.316;2022-07-17T11:21:58;33.10;41.10
32522;DHT22;18963;51.504;5.316;2022-07-17T11:24:24;32.70;40.80
32522;DHT22;18963;51.504;5.316;2022-07-17T11:26:51;32.50;39.90
32522;DHT22;18963;51.504;5.316;2022-07-17T11:29:18;32.50;39.80
32522;DHT22;18963;51.504;5.316;2022-07-17T11:31:44;32.50;39.50
32522;DHT22;18963;51.504;5.316;2022-07-17T11:34:10;32.50;40.30
32522;DHT22;18963;51.504;5.316;2022-07-17T11:36:42;32.00;39.30
32522;DHT22;18963;51.504;5.316;2022-07-17T11:39:16;32.10;40.20
32522;DHT22;18963;51.504;5.316;2022-07-17T11:41:48;31.90;40.70
32522;DHT22;18963;51.504;5.316;2022-07-17T11:44:23;32.20;40.90
32522;DHT22;18963;51.504;5.316;2022-07-17T11:46:50;32.90;40.20
32522;DHT22;18963;51.504;5.316;2022-07-17T11:49:30;33.20;39.50
32522;DHT22;18963;51.504;5.316;2022-07-17T11:52:06;33.00;38.20
32522;DHT22;18963;51.504;5.316;2022-07-17T11:54:32;33.10;39.10
32522;DHT22;18963;51.504;5.316;2022-07-17T11:57:08;32.80;38.80
32522;DHT22;18963;51.504;5.316;2022-07-17T11:59:33;33.40;38.90
32522;DHT22;18963;51.504;5.316;2022-07-17T12:04:51;33.00;38.10
32522;DHT22;18963;51.504;5.316;2022-07-17T12:07:17;33.30;38.60
32522;DHT22;18963;51.504;5.316;2022-07-17T12:09:43;33.40;37.70
32522;DHT22;18963;51.504;5.316;2022-07-17T12:12:38;33.00;37.40
32522;DHT22;18963;51.504;5.316;2022-07-17T12:15:04;32.80;37.60
32522;DHT22;18963;51.504;5.316;2022-07-17T12:17:39;33.20;38.20
32522;DHT22;18963;51.504;5.316;2022-07-17T12:20:05;33.20;37.50
32522;DHT22;18963;51.504;5.316;2022-07-17T12:22:46;33.30;38.40
32522;DHT22;18963;51.504;5.316;2022-07-17T12:25:26;33.20;37.80
32522;DHT22;18963;51.504;5.316;2022-07-17T12:27:52;32.60;38.50
32522;DHT22;18963;51.504;5.316;2022-07-17T12:30:18;32.10;38.70
32522;DHT22;18963;51.504;5.316;2022-07-17T12:32:44;31.40;39.20
32522;DHT22;18963;51.504;5.316;2022-07-17T12:35:10;31.10;39.50
32522;DHT22;18963;51.504;5.316;2022-07-17T12:37:35;30.80;39.40
32522;DHT22;18963;51.504;5.316;2022-07-17T12:40:01;30.60;40.10
32522;DHT22;18963;51.504;5.316;2022-07-17T12:42:27;30.40;39.70
32522;DHT22;18963;51.504;5.316;2022-07-17T12:44:52;30.20;39.60
32522;DHT22;18963;51.504;5.316;2022-07-17T12:47:18;30.00;40.40
32522;DHT22;18963;51.504;5.316;2022-07-17T12:49:44;29.50;39.80
32522;DHT22;18963;51.504;5.316;2022-07-17T12:52:10;29.30;40.80
32522;DHT22;18963;51.504;5.316;2022-07-17T12:54:35;29.30;40.30
32522;DHT22;18963;51.504;5.316;2022-07-17T12:57:01;29.10;41.70
32522;DHT22;18963;51.504;5.316;2022-07-17T12:59:26;29.10;42.40
32522;DHT22;18963;51.504;5.316;2022-07-17T13:01:52;28.90;43.20
32522;DHT22;18963;51.504;5.316;2022-07-17T13:04:18;28.70;43.50
32522;DHT22;18963;51.504;5.316;2022-07-17T13:06:46;28.50;44.40
32522;DHT22;18963;51.504;5.316;2022-07-17T13:09:11;28.40;44.00
32522;DHT22;18963;51.504;5.316;2022-07-17T13:11:41;28.30;44.20
32522;DHT22;18963;51.504;5.316;2022-07-17T13:14:07;28.20;43.70
32522;DHT22;18963;51.504;5.316;2022-07-17T13:16:40;28.10;43.90
32522;DHT22;18963;51.504;5.316;2022-07-17T13:19:06;27.80;43.80
32522;DHT22;18963;51.504;5.316;2022-07-17T13:21:32;27.80;45.10
32522;DHT22;18963;51.504;5.316;2022-07-17T13:23:57;27.80;44.90
32522;DHT22;18963;51.504;5.316;2022-07-17T13:26:23;27.80;44.90
32522;DHT22;18963;51.504;5.316;2022-07-17T13:28:49;28.10;45.50
32522;DHT22;18963;51.504;5.316;2022-07-17T13:31:15;28.00;44.70
32522;DHT22;18963;51.504;5.316;2022-07-17T13:33:40;28.00;44.10
32522;DHT22;18963;51.504;5.316;2022-07-17T13:36:06;28.00;44.00
32522;DHT22;18963;51.504;5.316;2022-07-17T13:38:32;28.20;44.00
32522;DHT22;18963;51.504;5.316;2022-07-17T13:40:57;28.20;44.00
32522;DHT22;18963;51.504;5.316;2022-07-17T13:43:23;28.30;43.60
32522;DHT22;18963;51.504;5.316;2022-07-17T13:45:49;28.30;43.50
32522;DHT22;18963;51.504;5.316;2022-07-17T13:48:15;28.50;44.00
32522;DHT22;18963;51.504;5.316;2022-07-17T13:50:41;28.60;44.00
32522;DHT22;18963;51.504;5.316;2022-07-17T13:53:07;29.00;43.80
32522;DHT22;18963;51.504;5.316;2022-07-17T13:55:32;29.20;43.50
32522;DHT22;18963;51.504;5.316;2022-07-17T13:57:58;29.30;43.90
32522;DHT22;18963;51.504;5.316;2022-07-17T14:00:24;29.20;44.70
32522;DHT22;18963;51.504;5.316;2022-07-17T14:02:50;29.00;43.60
32522;DHT22;18963;51.504;5.316;2022-07-17T14:05:16;28.90;44.00
32522;DHT22;18963;51.504;5.316;2022-07-17T14:07:41;28.80;44.10
32522;DHT22;18963;51.504;5.316;2022-07-17T14:10:08;28.70;44.50
32522;DHT22;18963;51.504;5.316;2022-07-17T14:12:35;28.80;44.20
32522;DHT22;18963;51.504;5.316;2022-07-17T14:15:01;28.90;44.30
32522;DHT22;18963;51.504;5.316;2022-07-17T14:17:27;28.80;44.00
32522;DHT22;18963;51.504;5.316;2022-07-17T14:19:52;28.80;44.10
32522;DHT22;18963;51.504;5.316;2022-07-17T14:22:18;28.90;43.90
32522;DHT22;18963;51.504;5.316;2022-07-17T14:24:43;28.90;43.40
32522;DHT22;18963;51.504;5.316;2022-07-17T14:27:09;28.60;44.40
32522;DHT22;18963;51.504;5.316;2022-07-17T14:29:34;28.70;44.10
32522;DHT22;18963;51.504;5.316;2022-07-17T14:32:00;28.70;45.10
32522;DHT22;18963;51.504;5.316;2022-07-17T14:34:26;28.50;44.80
32522;DHT22;18963;51.504;5.316;2022-07-17T14:36:51;28.10;45.10
32522;DHT22;18963;51.504;5.316;2022-07-17T14:39:17;28.00;45.90
32522;DHT22;18963;51.504;5.316;2022-07-17T14:41:43;27.90;45.20
32522;DHT22;18963;51.504;5.316;2022-07-17T14:44:10;27.80;45.00
32522;DHT22;18963;51.504;5.316;2022-07-17T14:46:36;27.60;46.00
32522;DHT22;18963;51.504;5.316;2022-07-17T14:49:02;27.50;46.00
32522;DHT22;18963;51.504;5.316;2022-07-17T14:51:27;27.30;46.40
32522;DHT22;18963;51.504;5.316;2022-07-17T14:53:53;27.10;46.70
32522;DHT22;18963;51.504;5.316;2022-07-17T14:56:19;27.00;46.70
32522;DHT22;18963;51.504;5.316;2022-07-17T14:58:44;27.00;46.90
32522;DHT22;18963;51.504;5.316;2022-07-17T15:01:10;26.80;47.10
32522;DHT22;18963;51.504;5.316;2022-07-17T15:03:35;26.80;46.80
32522;DHT22;18963;51.504;5.316;2022-07-17T15:06:01;26.80;45.70
32522;DHT22;18963;51.504;5.316;2022-07-17T15:08:27;26.70;46.10
32522;DHT22;18963;51.504;5.316;2022-07-17T15:10:52;26.70;46.80
32522;DHT22;18963;51.504;5.316;2022-07-17T15:13:18;26.60;46.40
32522;DHT22;18963;51.504;5.316;2022-07-17T15:15:44;26.60;46.00
32522;DHT22;18963;51.504;5.316;2022-07-17T15:18:09;26.50;45.70
32522;DHT22;18963;51.504;5.316;2022-07-17T15:20:35;26.50;46.30
32522;DHT22;18963;51.504;5.316;2022-07-17T15:23:02;26.40;46.20
32522;DHT22;18963;51.504;5.316;2022-07-17T15:25:28;26.40;45.50
32522;DHT22;18963;51.504;5.316;2022-07-17T15:27:53;26.20;46.50
32522;DHT22;18963;51.504;5.316;2022-07-17T15:30:19;26.10;46.90
32522;DHT22;18963;51.504;5.316;2022-07-17T15:32:45;26.10;47.60
32522;DHT22;18963;51.504;5.316;2022-07-17T15:35:11;26.10;47.90
32522;DHT22;18963;51.504;5.316;2022-07-17T15:37:37;26.10;47.80
32522;DHT22;18963;51.504;5.316;2022-07-17T15:40:03;26.00;47.00